createdAt,value
2018-05-11T00:01:46.151Z,13.11
2018-05-11T00:04:13.702Z,13.05
2018-05-11T00:06:41.194Z,13.04
2018-05-11T00:09:08.656Z,13.06
2018-05-11T00:11:36.182Z,13.08
2018-05-11T00:14:03.719Z,13.07
2018-05-11T00:16:31.199Z,13.04
2018-05-11T00:18:58.658Z,13.01
2018-05-11T00:21:26.140Z,13.03
2018-05-11T00:23:53.598Z,13.03
2018-05-11T00:26:21.086Z,13.02
2018-05-11T00:28:48.558Z,13.01
2018-05-11T00:31:16.054Z,12.97
2018-05-11T00:33:43.519Z,12.90
2018-05-11T00:36:11.073Z,12.85
2018-05-11T00:38:38.626Z,12.80
2018-05-11T00:41:06.098Z,12.73
2018-05-11T00:43:33.583Z,12.72
2018-05-11T00:46:01.051Z,12.66
2018-05-11T00:48:28.541Z,12.62
2018-05-11T00:50:56.126Z,12.52
2018-05-11T00:53:24.638Z,12.44
2018-05-11T00:55:52.102Z,12.37
2018-05-11T00:58:19.662Z,12.30
2018-05-11T01:00:47.182Z,12.23
2018-05-11T01:03:14.669Z,12.20
2018-05-11T01:05:42.134Z,12.12
2018-05-11T01:08:09.663Z,12.04
2018-05-11T01:10:37.207Z,11.98
2018-05-11T01:13:04.766Z,11.89
2018-05-11T01:15:32.223Z,11.86
2018-05-11T01:17:59.713Z,11.83
2018-05-11T01:20:27.243Z,11.78
2018-05-11T01:22:54.799Z,11.71
2018-05-11T01:25:22.258Z,11.74
2018-05-11T01:27:49.751Z,11.76
2018-05-11T01:30:17.217Z,11.78
2018-05-11T01:32:44.711Z,11.85
2018-05-11T01:35:12.166Z,11.87
2018-05-11T01:37:39.751Z,11.92
2018-05-11T01:40:07.239Z,11.92
2018-05-11T01:42:34.720Z,11.87
2018-05-11T01:45:02.191Z,11.91
2018-05-11T01:47:29.650Z,11.84
2018-05-11T01:49:57.162Z,11.77
2018-05-11T01:52:24.747Z,11.63
2018-05-11T01:54:52.256Z,11.55
2018-05-11T01:57:19.788Z,11.56
2018-05-11T01:59:47.268Z,11.57
2018-05-11T02:02:14.762Z,11.51
2018-05-11T02:04:42.262Z,11.37
2018-05-11T02:07:09.799Z,11.19
2018-05-11T02:09:37.334Z,11.16
2018-05-11T02:12:04.817Z,11.00
2018-05-11T02:14:32.318Z,10.83
2018-05-11T02:16:59.782Z,10.74
2018-05-11T02:19:27.268Z,10.70
2018-05-11T02:21:54.735Z,10.67
2018-05-11T02:24:22.288Z,10.70
2018-05-11T02:26:49.849Z,10.65
2018-05-11T02:29:17.418Z,10.55
2018-05-11T02:31:44.895Z,10.61
2018-05-11T02:34:12.403Z,10.61
2018-05-11T02:36:39.884Z,10.62
2018-05-11T02:39:07.369Z,10.60
2018-05-11T02:41:34.825Z,10.63
2018-05-11T02:44:02.362Z,10.67
2018-05-11T02:46:29.820Z,10.72
2018-05-11T02:48:57.357Z,10.68
2018-05-11T02:51:24.862Z,10.63
2018-05-11T02:53:52.411Z,10.60
2018-05-11T02:56:19.902Z,10.52
2018-05-11T02:58:47.405Z,10.45
2018-05-11T03:01:14.968Z,10.38
2018-05-11T03:03:42.631Z,10.33
2018-05-11T03:06:10.334Z,10.25
2018-05-11T03:08:37.848Z,10.23
2018-05-11T03:11:05.342Z,10.20
2018-05-11T03:13:32.817Z,10.13
2018-05-11T03:16:00.312Z,10.05
2018-05-11T03:18:27.829Z,9.97
2018-05-11T03:20:55.278Z,9.95
2018-05-11T03:23:22.742Z,9.92
2018-05-11T03:25:50.226Z,9.97
2018-05-11T03:28:18.122Z,9.96
2018-05-11T03:30:45.635Z,9.87
2018-05-11T03:33:13.144Z,9.76
2018-05-11T03:35:40.631Z,9.74
2018-05-11T03:38:08.090Z,9.78
2018-05-11T03:40:35.614Z,9.84
2018-05-11T03:43:03.075Z,9.89
2018-05-11T03:45:30.566Z,9.93
2018-05-11T03:47:58.027Z,10.08
2018-05-11T03:50:25.518Z,10.20
2018-05-11T03:52:52.990Z,10.26
2018-05-11T03:55:20.489Z,10.29
2018-05-11T03:57:47.955Z,10.32
2018-05-11T04:00:15.462Z,10.40
2018-05-11T04:02:54.899Z,10.49
2018-05-11T04:05:34.265Z,10.53
2018-05-11T04:08:14.555Z,10.64
2018-05-11T04:10:42.079Z,10.71
2018-05-11T04:13:09.559Z,10.74
2018-05-11T04:15:37.071Z,10.74
2018-05-11T04:18:05.545Z,10.77
2018-05-11T04:20:33.015Z,10.82
2018-05-11T04:23:00.594Z,10.82
2018-05-11T04:25:29.074Z,10.78
2018-05-11T04:27:56.563Z,10.89
2018-05-11T04:30:24.073Z,10.95
2018-05-11T04:32:51.571Z,10.96
2018-05-11T04:35:19.040Z,10.98
2018-05-11T04:37:46.544Z,11.04
2018-05-11T04:40:14.023Z,11.02
2018-05-11T04:42:41.519Z,10.99
2018-05-11T04:45:09.106Z,10.98
2018-05-11T04:47:36.603Z,10.95
2018-05-11T04:50:04.074Z,11.07
2018-05-11T04:52:31.663Z,11.13
2018-05-11T04:54:59.159Z,11.08
2018-05-11T04:57:26.650Z,11.13
2018-05-11T04:59:54.115Z,11.15
2018-05-11T05:02:21.610Z,11.23
2018-05-11T05:04:49.086Z,11.46
2018-05-11T05:07:16.578Z,11.57
2018-05-11T05:09:44.064Z,11.66
2018-05-11T05:12:11.567Z,11.74
2018-05-11T05:14:39.050Z,11.81
2018-05-11T05:17:06.608Z,11.83
2018-05-11T05:19:34.086Z,11.90
2018-05-11T05:22:01.627Z,12.00
2018-05-11T05:24:29.100Z,11.93
2018-05-11T05:26:56.643Z,11.98
2018-05-11T05:29:24.193Z,12.01
2018-05-11T05:31:51.704Z,12.09
2018-05-11T05:34:19.210Z,12.30
2018-05-11T05:36:46.708Z,12.33
2018-05-11T05:39:14.213Z,12.33
2018-05-11T05:41:41.694Z,12.39
2018-05-11T05:44:09.195Z,12.56
2018-05-11T05:46:36.690Z,12.70
2018-05-11T05:49:04.186Z,12.85
2018-05-11T05:51:31.730Z,12.84
2018-05-11T05:53:59.415Z,12.85
2018-05-11T05:56:26.900Z,12.94
2018-05-11T05:58:54.452Z,12.83
2018-05-11T06:01:21.954Z,12.88
2018-05-11T06:03:49.526Z,12.95
2018-05-11T06:06:17.013Z,12.82
2018-05-11T06:08:44.538Z,12.98
2018-05-11T06:11:12.010Z,13.19
2018-05-11T06:13:39.503Z,13.34
2018-05-11T06:16:06.989Z,13.40
2018-05-11T06:18:35.305Z,13.46
2018-05-11T06:21:02.779Z,13.68
2018-05-11T06:23:30.353Z,13.96
2018-05-11T06:25:57.844Z,13.96
2018-05-11T06:28:25.444Z,14.12
2018-05-11T06:30:52.915Z,14.27
2018-05-11T06:33:20.417Z,14.38
2018-05-11T06:35:47.886Z,14.30
2018-05-11T06:38:15.367Z,14.19
2018-05-11T06:40:42.869Z,14.46
2018-05-11T06:43:10.525Z,14.51
2018-05-11T06:45:38.069Z,14.55
2018-05-11T06:48:05.563Z,14.50
2018-05-11T06:50:33.064Z,14.78
2018-05-11T06:53:00.565Z,15.00
2018-05-11T06:55:28.082Z,14.94
2018-05-11T06:57:55.551Z,15.14
2018-05-11T07:00:23.095Z,15.40
2018-05-11T07:02:50.578Z,15.73
2018-05-11T07:05:19.794Z,15.78
2018-05-11T07:07:47.418Z,16.01
2018-05-11T07:10:14.839Z,15.84
2018-05-11T07:12:42.313Z,15.64
2018-05-11T07:15:09.815Z,15.30
2018-05-11T07:17:37.306Z,15.06
2018-05-11T07:20:04.802Z,14.94
2018-05-11T07:22:32.294Z,15.02
2018-05-11T07:24:59.831Z,15.20
2018-05-11T07:27:27.478Z,15.54
2018-05-11T07:29:54.995Z,15.79
2018-05-11T07:32:22.501Z,16.08
2018-05-11T07:34:50.015Z,16.61
2018-05-11T07:37:17.522Z,17.01
2018-05-11T07:39:45.030Z,17.21
2018-05-11T07:42:12.552Z,16.81
2018-05-11T07:44:40.135Z,17.04
2018-05-11T07:47:07.655Z,17.81
2018-05-11T07:49:35.122Z,17.18
2018-05-11T07:52:02.667Z,16.06
2018-05-11T07:54:30.230Z,15.42
2018-05-11T07:56:59.805Z,14.99
2018-05-11T07:59:27.495Z,14.89
2018-05-11T08:01:55.022Z,15.06
2018-05-11T08:04:22.634Z,14.86
2018-05-11T08:06:50.293Z,14.61
2018-05-11T08:09:17.843Z,14.82
2018-05-11T08:11:46.928Z,14.83
2018-05-11T08:14:15.561Z,14.93
2018-05-11T08:16:46.933Z,14.74
2018-05-11T08:19:14.627Z,14.82
2018-05-11T08:21:42.127Z,15.16
2018-05-11T08:24:09.720Z,15.17
2018-05-11T08:26:37.272Z,15.31
2018-05-11T08:29:04.771Z,15.35
2018-05-11T08:31:32.335Z,15.61
2018-05-11T08:33:59.831Z,15.90
2018-05-11T08:36:27.355Z,16.13
2018-05-11T08:38:54.909Z,16.33
2018-05-11T08:41:22.467Z,16.41
2018-05-11T08:43:50.134Z,16.31
2018-05-11T08:46:17.636Z,16.70
2018-05-11T08:48:45.119Z,17.11
2018-05-11T08:51:12.639Z,17.44
2018-05-11T08:53:40.131Z,17.61
2018-05-11T08:56:07.647Z,17.86
2018-05-11T08:58:35.206Z,18.45
2018-05-11T09:01:02.819Z,18.59
2018-05-11T09:03:30.318Z,18.59
2018-05-11T09:05:57.925Z,18.47
2018-05-11T09:08:25.580Z,18.98
2018-05-11T09:10:53.170Z,19.11
2018-05-11T09:13:21.180Z,19.31
2018-05-11T09:15:48.719Z,19.51
2018-05-11T09:18:16.287Z,20.02
2018-05-11T09:20:43.759Z,20.09
2018-05-11T09:23:11.260Z,20.27
2018-05-11T09:25:41.189Z,20.28
2018-05-11T09:28:08.898Z,20.69
2018-05-11T09:30:36.399Z,21.23
2018-05-11T09:33:03.886Z,21.43
2018-05-11T09:35:31.472Z,21.03
2018-05-11T09:37:59.051Z,21.36
2018-05-11T09:40:26.531Z,21.30
2018-05-11T09:42:54.099Z,21.64
2018-05-11T09:45:22.604Z,22.42
2018-05-11T09:47:50.151Z,21.58
2018-05-11T09:50:17.756Z,20.84
2018-05-11T09:52:45.242Z,20.38
2018-05-11T09:55:12.792Z,20.10
2018-05-11T09:57:40.315Z,20.68
2018-05-11T10:00:07.783Z,20.75
2018-05-11T10:02:35.331Z,20.82
2018-05-11T10:05:02.940Z,21.62
2018-05-11T10:07:30.465Z,21.84
2018-05-11T10:09:58.219Z,22.13
2018-05-11T10:12:25.730Z,21.79
2018-05-11T10:14:53.270Z,21.73
2018-05-11T10:17:20.735Z,22.28
2018-05-11T10:19:48.351Z,23.56
2018-05-11T10:22:15.899Z,23.81
2018-05-11T10:24:43.410Z,23.90
2018-05-11T10:27:10.927Z,24.36
2018-05-11T10:29:38.586Z,25.31
2018-05-11T10:32:06.071Z,25.33
2018-05-11T10:34:33.647Z,25.70
2018-05-11T10:37:01.214Z,26.32
2018-05-11T10:39:28.731Z,26.73
2018-05-11T10:41:56.291Z,26.65
2018-05-11T10:44:23.844Z,25.42
2018-05-11T10:46:51.517Z,25.57
2018-05-11T10:49:18.934Z,26.16
2018-05-11T10:51:46.394Z,26.84
2018-05-11T10:54:13.902Z,27.43
2018-05-11T10:56:41.371Z,27.14
2018-05-11T10:59:08.882Z,25.94
2018-05-11T11:01:36.359Z,24.83
2018-05-11T11:04:03.858Z,24.80
2018-05-11T11:06:31.374Z,25.05
2018-05-11T11:08:58.917Z,25.40
2018-05-11T11:11:26.395Z,26.32
2018-05-11T11:13:53.858Z,28.16
2018-05-11T11:16:21.384Z,28.05
2018-05-11T11:18:48.850Z,28.50
2018-05-11T11:21:16.365Z,27.75
2018-05-11T11:23:43.845Z,28.71
2018-05-11T11:26:11.368Z,28.50
2018-05-11T11:28:38.974Z,29.04
2018-05-11T11:31:06.498Z,29.32
2018-05-11T11:33:33.971Z,29.99
2018-05-11T11:36:01.459Z,30.39
2018-05-11T11:38:28.932Z,30.53
2018-05-11T11:40:57.428Z,30.05
2018-05-11T11:43:24.910Z,30.09
2018-05-11T11:45:52.502Z,29.73
2018-05-11T11:48:19.962Z,30.75
2018-05-11T11:50:47.451Z,31.09
2018-05-11T11:53:14.918Z,30.47
2018-05-11T11:55:42.624Z,32.21
2018-05-11T11:58:10.091Z,31.52
2018-05-11T12:00:37.709Z,32.19
2018-05-11T12:03:05.182Z,32.73
2018-05-11T12:05:32.739Z,33.15
2018-05-11T12:08:00.259Z,32.86
2018-05-11T12:10:27.868Z,34.00
2018-05-11T12:12:55.354Z,34.87
2018-05-11T12:15:22.842Z,33.16
2018-05-11T12:17:50.394Z,32.55
2018-05-11T12:20:17.987Z,34.02
2018-05-11T12:22:45.514Z,34.28
2018-05-11T12:25:13.031Z,34.90
2018-05-11T12:27:40.550Z,34.83
2018-05-11T12:30:08.010Z,35.65
2018-05-11T12:32:35.527Z,34.82
2018-05-11T12:35:02.990Z,34.04
2018-05-11T12:37:30.568Z,34.90
2018-05-11T12:39:58.035Z,34.55
2018-05-11T12:42:25.542Z,35.55
2018-05-11T12:44:53.044Z,36.60
2018-05-11T12:47:20.544Z,36.95
2018-05-11T12:49:48.011Z,36.66
2018-05-11T12:52:15.559Z,34.37
2018-05-11T12:54:43.082Z,35.94
2018-05-11T12:57:10.691Z,36.27
2018-05-11T12:59:38.171Z,36.76
2018-05-11T13:02:05.666Z,37.04
2018-05-11T13:04:33.127Z,37.30
2018-05-11T13:07:00.674Z,37.27
2018-05-11T13:09:28.138Z,35.96
2018-05-11T13:11:55.624Z,35.93
2018-05-11T13:14:23.084Z,37.45
2018-05-11T13:16:50.578Z,37.76
2018-05-11T13:19:18.999Z,37.41
2018-05-11T13:21:47.534Z,37.61
2018-05-11T13:24:15.034Z,37.98
2018-05-11T13:26:42.590Z,38.92
2018-05-11T13:29:10.097Z,38.37
2018-05-11T13:31:37.570Z,38.50
2018-05-11T13:34:05.085Z,38.60
2018-05-11T13:36:32.563Z,39.12
2018-05-11T13:39:00.125Z,38.51
2018-05-11T13:41:27.582Z,38.87
2018-05-11T13:43:55.098Z,39.58
2018-05-11T13:46:22.574Z,39.67
2018-05-11T13:48:50.134Z,40.32
2018-05-11T13:51:19.699Z,39.96
2018-05-11T13:53:47.303Z,41.42
2018-05-11T13:56:14.882Z,41.06
2018-05-11T13:58:42.407Z,39.97
2018-05-11T14:01:09.870Z,39.96
2018-05-11T14:03:37.430Z,39.96
2018-05-11T14:06:04.831Z,39.41
2018-05-11T14:08:32.357Z,39.34
2018-05-11T14:10:59.826Z,39.86
2018-05-11T14:13:27.330Z,39.88
2018-05-11T14:15:54.821Z,39.66
2018-05-11T14:18:22.392Z,39.00
2018-05-11T14:20:49.934Z,40.50
2018-05-11T14:23:17.452Z,41.44
2018-05-11T14:25:44.950Z,41.49
2018-05-11T14:28:12.517Z,41.71
2018-05-11T14:30:39.980Z,41.72
2018-05-11T14:33:07.531Z,41.48
2018-05-11T14:35:35.087Z,41.54
2018-05-11T14:38:02.589Z,41.96
2018-05-11T14:40:30.121Z,42.32
2018-05-11T14:42:57.601Z,42.64
2018-05-11T14:45:25.122Z,42.49
2018-05-11T14:47:52.583Z,42.90
2018-05-11T14:50:20.234Z,41.86
2018-05-11T14:52:47.709Z,40.18
2018-05-11T14:55:15.254Z,39.80
2018-05-11T14:57:42.714Z,39.12
2018-05-11T15:00:10.207Z,38.95
2018-05-11T15:02:37.738Z,36.79
2018-05-11T15:05:05.286Z,37.70
2018-05-11T15:07:32.751Z,38.62
2018-05-11T15:10:00.363Z,36.17
2018-05-11T15:12:27.784Z,34.49
2018-05-11T15:14:55.368Z,33.48
2018-05-11T15:17:22.835Z,34.90
2018-05-11T15:19:50.343Z,35.83
2018-05-11T15:22:17.876Z,36.55
2018-05-11T15:24:45.337Z,36.64
2018-05-11T15:27:12.804Z,36.86
2018-05-11T15:29:44.381Z,34.26
2018-05-11T15:32:11.847Z,35.25
2018-05-11T15:34:39.334Z,37.89
2018-05-11T15:37:06.791Z,38.33
2018-05-11T15:39:34.270Z,39.41
2018-05-11T15:42:01.768Z,39.33
2018-05-11T15:44:29.287Z,38.83
2018-05-11T15:46:56.784Z,38.62
2018-05-11T15:49:24.262Z,38.40
2018-05-11T15:51:51.828Z,36.67
2018-05-11T15:54:19.351Z,37.12
2018-05-11T15:56:46.815Z,37.88
2018-05-11T15:59:14.313Z,38.02
2018-05-11T16:01:41.937Z,39.43
2018-05-11T16:04:09.399Z,39.70
2018-05-11T16:06:36.938Z,38.82
2018-05-11T16:09:04.421Z,39.87
2018-05-11T16:11:32.008Z,37.46
2018-05-11T16:13:59.533Z,37.22
2018-05-11T16:16:27.023Z,36.52
2018-05-11T16:18:54.502Z,36.72
2018-05-11T16:21:21.994Z,37.87
2018-05-11T16:23:49.535Z,36.90
2018-05-11T16:26:17.032Z,36.76
2018-05-11T16:28:44.593Z,35.96
2018-05-11T16:31:12.090Z,36.33
2018-05-11T16:33:39.642Z,36.02
2018-05-11T16:36:07.137Z,36.72
2018-05-11T16:38:34.624Z,36.80
2018-05-11T16:41:02.123Z,36.73
2018-05-11T16:43:29.635Z,36.78
2018-05-11T16:45:57.192Z,36.37
2018-05-11T16:48:24.676Z,35.37
2018-05-11T16:50:52.173Z,35.12
2018-05-11T16:53:19.651Z,36.07
2018-05-11T16:55:47.276Z,35.76
2018-05-11T16:58:14.761Z,36.29
2018-05-11T17:00:42.389Z,35.53
2018-05-11T17:03:09.898Z,35.21
2018-05-11T17:05:37.486Z,34.98
2018-05-11T17:08:05.023Z,35.02
2018-05-11T17:10:32.603Z,34.95
2018-05-11T17:13:00.149Z,34.91
2018-05-11T17:15:27.618Z,35.25
2018-05-11T17:17:55.171Z,35.13
2018-05-11T17:20:22.643Z,34.11
2018-05-11T17:22:50.161Z,34.29
2018-05-11T17:25:17.622Z,34.13
2018-05-11T17:27:45.199Z,34.40
2018-05-11T17:30:12.764Z,33.40
2018-05-11T17:32:40.251Z,32.77
2018-05-11T17:35:07.719Z,33.22
2018-05-11T17:37:35.202Z,33.15
2018-05-11T17:40:02.667Z,32.44
2018-05-11T17:42:30.188Z,32.50
2018-05-11T17:44:57.711Z,31.18
2018-05-11T17:47:25.214Z,31.60
2018-05-11T17:49:52.694Z,30.21
2018-05-11T17:52:20.191Z,28.16
2018-05-11T17:54:47.695Z,26.77
2018-05-11T17:57:15.198Z,25.31
2018-05-11T17:59:42.800Z,24.65
2018-05-11T18:02:10.291Z,24.10
2018-05-11T18:04:37.798Z,23.69
2018-05-11T18:07:05.268Z,23.46
2018-05-11T18:09:32.770Z,23.23
2018-05-11T18:12:00.346Z,22.93
2018-05-11T18:14:27.775Z,22.82
2018-05-11T18:16:55.247Z,22.59
2018-05-11T18:19:22.834Z,22.37
2018-05-11T18:21:50.302Z,22.25
2018-05-11T18:24:17.848Z,22.12
2018-05-11T18:26:45.418Z,21.98
2018-05-11T18:29:12.909Z,21.88
2018-05-11T18:31:40.430Z,21.71
2018-05-11T18:34:07.987Z,21.55
2018-05-11T18:36:35.484Z,21.43
2018-05-11T18:39:03.007Z,21.30
2018-05-11T18:41:30.566Z,21.13
2018-05-11T18:43:58.127Z,21.01
2018-05-11T18:46:25.614Z,20.82
2018-05-11T18:48:53.106Z,20.64
2018-05-11T18:51:20.575Z,20.52
2018-05-11T18:53:48.392Z,20.46
2018-05-11T18:56:15.615Z,20.29
2018-05-11T18:58:43.099Z,20.17
2018-05-11T19:01:10.581Z,20.08
2018-05-11T19:03:38.102Z,19.92
2018-05-11T19:06:05.596Z,19.80
2018-05-11T19:08:33.103Z,19.69
2018-05-11T19:11:00.599Z,19.57
2018-05-11T19:16:02.367Z,19.53
2018-05-11T19:18:29.838Z,19.46
2018-05-11T19:20:57.358Z,19.41
2018-05-11T19:23:24.860Z,19.30
2018-05-11T19:25:52.356Z,19.20
2018-05-11T19:28:19.889Z,19.15
2018-05-11T19:30:47.423Z,19.14
2018-05-11T19:33:14.907Z,19.09
2018-05-11T19:35:42.427Z,19.04
2018-05-11T19:38:09.895Z,18.91
2018-05-11T19:40:37.387Z,18.80
2018-05-11T19:43:04.891Z,18.71
2018-05-11T19:45:32.379Z,18.57
2018-05-11T19:47:59.942Z,18.44
2018-05-11T19:50:27.442Z,18.33
2018-05-11T19:52:54.946Z,18.23
2018-05-11T19:55:22.460Z,18.11
2018-05-11T19:57:49.970Z,18.00
2018-05-11T20:00:17.481Z,17.88
2018-05-11T20:02:44.960Z,17.78
2018-05-11T20:05:12.476Z,17.65
2018-05-11T20:07:40.035Z,17.57
2018-05-11T20:10:07.526Z,17.53
2018-05-11T20:12:35.012Z,17.45
2018-05-11T20:15:02.550Z,17.44
2018-05-11T20:17:30.127Z,17.43
2018-05-11T20:19:57.673Z,17.39
2018-05-11T20:22:25.153Z,17.33
2018-05-11T20:24:52.781Z,17.27
2018-05-11T20:27:20.239Z,17.20
2018-05-11T20:29:47.707Z,17.15
2018-05-11T20:32:15.219Z,17.09
2018-05-11T20:34:42.808Z,17.08
2018-05-11T20:37:10.336Z,17.04
2018-05-11T20:39:37.851Z,16.96
2018-05-11T20:42:05.346Z,16.91
2018-05-11T20:44:32.871Z,16.84
2018-05-11T20:47:00.366Z,16.78
2018-05-11T20:49:27.980Z,16.74
2018-05-11T20:51:55.523Z,16.70
2018-05-11T20:54:23.076Z,16.71
2018-05-11T20:56:50.655Z,16.70
2018-05-11T20:59:18.126Z,16.68
2018-05-11T21:01:45.614Z,16.68
2018-05-11T21:04:13.110Z,16.66
2018-05-11T21:06:40.604Z,16.69
2018-05-11T21:09:08.155Z,16.62
2018-05-11T21:11:35.647Z,16.59
2018-05-11T21:14:03.120Z,16.56
2018-05-11T21:16:30.631Z,16.58
2018-05-11T21:18:58.111Z,16.57
2018-05-11T21:21:25.626Z,16.59
2018-05-11T21:23:53.093Z,16.55
2018-05-11T21:26:20.663Z,16.45
2018-05-11T21:28:48.128Z,16.37
2018-05-11T21:31:15.699Z,16.29
2018-05-11T21:33:43.166Z,16.24
2018-05-11T21:36:10.640Z,16.29
2018-05-11T21:38:38.231Z,16.35
2018-05-11T21:41:05.801Z,16.33
2018-05-11T21:43:33.252Z,16.27
2018-05-11T21:46:00.719Z,16.20
2018-05-11T21:48:28.222Z,16.17
2018-05-11T21:50:55.699Z,16.17
2018-05-11T21:53:23.202Z,16.19
2018-05-11T21:55:50.768Z,16.17
2018-05-11T21:58:18.289Z,16.07
2018-05-11T22:00:45.782Z,15.95
2018-05-11T22:03:13.278Z,15.89
2018-05-11T22:05:40.777Z,15.81
2018-05-11T22:08:08.267Z,15.73
2018-05-11T22:10:35.739Z,15.65
2018-05-11T22:13:03.228Z,15.59
2018-05-11T22:15:30.730Z,15.57
2018-05-11T22:17:58.236Z,15.49
2018-05-11T22:20:25.730Z,15.48
2018-05-11T22:22:53.223Z,15.54
2018-05-11T22:25:20.690Z,15.50
2018-05-11T22:27:48.370Z,15.51
2018-05-11T22:30:15.839Z,15.48
2018-05-11T22:32:43.451Z,15.45
2018-05-11T22:35:10.927Z,15.42
2018-05-11T22:37:38.473Z,15.41
2018-05-11T22:40:06.018Z,15.41
2018-05-11T22:42:33.593Z,15.43
2018-05-11T22:45:01.067Z,15.40
2018-05-11T22:47:28.603Z,15.31
2018-05-11T22:49:56.162Z,15.18
2018-05-11T22:52:23.631Z,15.17
2018-05-11T22:54:51.188Z,15.11
2018-05-11T22:57:18.659Z,15.08
2018-05-11T22:59:46.199Z,15.11
2018-05-11T23:02:13.794Z,15.12
2018-05-11T23:04:41.307Z,15.13
2018-05-11T23:07:08.876Z,15.06
2018-05-11T23:09:36.435Z,14.96
2018-05-11T23:12:03.898Z,14.91
2018-05-11T23:14:31.387Z,14.87
2018-05-11T23:16:58.855Z,14.83
2018-05-11T23:19:26.395Z,14.75
2018-05-11T23:21:53.931Z,14.65
2018-05-11T23:24:21.482Z,14.56
2018-05-11T23:26:49.056Z,14.49
2018-05-11T23:29:16.550Z,14.45
2018-05-11T23:31:44.021Z,14.38
2018-05-11T23:34:11.598Z,14.34
2018-05-11T23:36:39.070Z,14.34
2018-05-11T23:39:06.641Z,14.34
2018-05-11T23:41:34.111Z,14.34
2018-05-11T23:44:01.617Z,14.34
2018-05-11T23:46:29.107Z,14.32
2018-05-11T23:48:56.603Z,14.27
2018-05-11T23:51:24.083Z,14.21
2018-05-11T23:53:51.653Z,14.19
2018-05-11T23:56:19.126Z,14.12
2018-05-11T23:58:46.614Z,14.07
